עמוד ראשי
METAR-TAF:

METAR-TAF

שדות תעופה :

טגוסיגלפה, הונדורס

קו רוחב: 14-03N, קו אורך: 087-13W, גובה: 994מטר

תצפית מזג אוויר נוכחית

הדו"ח נערך לפני 12דקות, בשעה 08:00 UTC
רוח 5קשר מכיוון דרום/דרום-מערב
טמפרטורת 18 צלסיוס
לחות 77%
לחץ 1020 hPa
ראות 10 קילומטר או יותר
ללא עננים שבסיסם נמוך מ 5000 רגל או קומולונימבוס

METAR: MHTG 290800Z 21005KT CAVOK 18/14 Q1020 A3012 NOSIG

זמן: 02:12 (08:12 UTC)

תחזית

הדו"ח נערך לפני 3 שעות ו 57דקות, בשעה 04:15 UTC
תחזית בתוקף מ 29 ב 06 UTC עד 01 ב 06 UTC
רוח 4קשר עם כיוונים משתנים
ראות 10 קילומטר או יותר
מעט עננים בגובה 1200רגל
עננים פזורים בגובה 3200רגל
יעשה מ
29 ב 15 UTC עד 29 ב 17 UTC
רוח 12קשר מכיוון מזרח
ראות 10 קילומטר או יותר
ללא עננים שבסיסם נמוך מ 5000 רגל או קומולונימבוס

TAF: MHTG 290415Z 2906/0106 VRB04KT 9999 FEW012 SCT032 TX30/2920Z TN16/2912Z BECMG 2915/2917 08012KT CAVOK

תצפיות ותחזיות מזג אוויר לגבי יותר מ- 4,000 שדות תעופה ברחבי העולם. דוחות METAR ו- TAF.

התחנות הזמינות מסומנות בנקודות צהובות ואדומות על גבי המפה.

העבר את העכבר לנקודה הצבעונית על מנת לראות את שם התחנה.

לאחר מכן, לחץ כדי לראות את תוכן ואת תחזיות מזג האוויר.

כדי לשנות את המפה: לחץ על הכפתורים הירוקים עם הפלוס השחור כדי להתקרב; על הכפתור הירוק עם המקף כדי להתרחק; או בחיצים הירוקים למפות סמוכות.


METAR-TAF: